sensor_id;sensor_type;location;lat;lon;timestamp;temperature;humidity
62904;DHT22;49000;50.698;13.322;2024-03-29T00:00:40;4.60;99.90
62904;DHT22;49000;50.698;13.322;2024-03-29T00:03:06;4.20;99.90
62904;DHT22;49000;50.698;13.322;2024-03-29T00:05:35;4.60;99.90
62904;DHT22;49000;50.698;13.322;2024-03-29T00:08:01;4.50;99.90
62904;DHT22;49000;50.698;13.322;2024-03-29T00:10:27;4.60;99.90
62904;DHT22;49000;50.698;13.322;2024-03-29T00:12:52;4.40;99.90
62904;DHT22;49000;50.698;13.322;2024-03-29T00:15:18;4.50;99.90
62904;DHT22;49000;50.698;13.322;2024-03-29T00:17:43;4.20;99.90
62904;DHT22;49000;50.698;13.322;2024-03-29T00:20:09;4.30;99.90
62904;DHT22;49000;50.698;13.322;2024-03-29T00:22:35;4.20;99.90
62904;DHT22;49000;50.698;13.322;2024-03-29T00:25:00;4.10;99.90
62904;DHT22;49000;50.698;13.322;2024-03-29T00:27:26;4.00;99.90
62904;DHT22;49000;50.698;13.322;2024-03-29T00:29:53;4.10;99.90
62904;DHT22;49000;50.698;13.322;2024-03-29T00:32:20;3.80;99.90
62904;DHT22;49000;50.698;13.322;2024-03-29T00:34:45;3.80;99.90
62904;DHT22;49000;50.698;13.322;2024-03-29T00:37:11;3.50;99.90
62904;DHT22;49000;50.698;13.322;2024-03-29T00:39:37;3.60;99.90
62904;DHT22;49000;50.698;13.322;2024-03-29T00:42:03;3.30;99.90
62904;DHT22;49000;50.698;13.322;2024-03-29T00:44:29;3.50;99.90
62904;DHT22;49000;50.698;13.322;2024-03-29T00:46:55;2.70;99.90
62904;DHT22;49000;50.698;13.322;2024-03-29T00:49:20;3.20;99.90
62904;DHT22;49000;50.698;13.322;2024-03-29T00:51:47;3.20;99.90
62904;DHT22;49000;50.698;13.322;2024-03-29T00:54:12;3.10;99.90
62904;DHT22;49000;50.698;13.322;2024-03-29T00:56:38;2.70;99.90
62904;DHT22;49000;50.698;13.322;2024-03-29T00:59:03;3.10;99.90
62904;DHT22;49000;50.698;13.322;2024-03-29T01:01:29;2.80;99.90
62904;DHT22;49000;50.698;13.322;2024-03-29T01:03:54;3.00;99.90
62904;DHT22;49000;50.698;13.322;2024-03-29T01:06:20;2.40;99.90
62904;DHT22;49000;50.698;13.322;2024-03-29T01:08:45;2.50;99.90
62904;DHT22;49000;50.698;13.322;2024-03-29T01:11:11;2.60;1.00
62904;DHT22;49000;50.698;13.322;2024-03-29T01:13:36;2.40;1.00
62904;DHT22;49000;50.698;13.322;2024-03-29T01:16:01;2.60;1.00
62904;DHT22;49000;50.698;13.322;2024-03-29T01:18:27;2.80;1.00
62904;DHT22;49000;50.698;13.322;2024-03-29T01:20:52;2.70;1.00
62904;DHT22;49000;50.698;13.322;2024-03-29T01:23:18;2.70;1.00
62904;DHT22;49000;50.698;13.322;2024-03-29T01:25:43;2.80;1.00
62904;DHT22;49000;50.698;13.322;2024-03-29T01:28:09;2.40;1.00
62904;DHT22;49000;50.698;13.322;2024-03-29T01:30:34;2.60;1.00
62904;DHT22;49000;50.698;13.322;2024-03-29T01:33:00;2.70;1.00
62904;DHT22;49000;50.698;13.322;2024-03-29T01:35:25;2.30;1.00
62904;DHT22;49000;50.698;13.322;2024-03-29T01:37:51;2.50;1.00
62904;DHT22;49000;50.698;13.322;2024-03-29T01:40:16;2.10;1.00
62904;DHT22;49000;50.698;13.322;2024-03-29T01:42:41;1.90;1.00
62904;DHT22;49000;50.698;13.322;2024-03-29T01:45:08;2.30;1.00
62904;DHT22;49000;50.698;13.322;2024-03-29T01:47:33;2.30;1.00
62904;DHT22;49000;50.698;13.322;2024-03-29T01:49:59;2.40;1.00
62904;DHT22;49000;50.698;13.322;2024-03-29T01:52:26;2.40;1.00
62904;DHT22;49000;50.698;13.322;2024-03-29T01:54:52;2.10;1.00
62904;DHT22;49000;50.698;13.322;2024-03-29T01:57:18;2.10;1.00
62904;DHT22;49000;50.698;13.322;2024-03-29T01:59:45;2.00;1.00
62904;DHT22;49000;50.698;13.322;2024-03-29T02:02:12;2.00;1.00
62904;DHT22;49000;50.698;13.322;2024-03-29T02:04:37;2.00;1.00
62904;DHT22;49000;50.698;13.322;2024-03-29T02:07:03;1.80;1.00
62904;DHT22;49000;50.698;13.322;2024-03-29T02:09:29;1.70;1.00
62904;DHT22;49000;50.698;13.322;2024-03-29T02:11:55;1.90;1.00
62904;DHT22;49000;50.698;13.322;2024-03-29T02:14:20;1.90;1.00
62904;DHT22;49000;50.698;13.322;2024-03-29T02:16:46;1.60;1.00
62904;DHT22;49000;50.698;13.322;2024-03-29T02:19:11;1.90;1.00
62904;DHT22;49000;50.698;13.322;2024-03-29T02:21:38;2.00;1.00
62904;DHT22;49000;50.698;13.322;2024-03-29T02:24:07;1.90;1.00
62904;DHT22;49000;50.698;13.322;2024-03-29T02:26:33;2.10;1.00
62904;DHT22;49000;50.698;13.322;2024-03-29T02:29:02;1.80;1.00
62904;DHT22;49000;50.698;13.322;2024-03-29T02:31:27;1.70;1.00
62904;DHT22;49000;50.698;13.322;2024-03-29T02:33:53;1.90;1.00
62904;DHT22;49000;50.698;13.322;2024-03-29T02:36:18;1.80;1.00
62904;DHT22;49000;50.698;13.322;2024-03-29T02:38:44;1.60;1.00
62904;DHT22;49000;50.698;13.322;2024-03-29T02:41:09;1.80;1.00
62904;DHT22;49000;50.698;13.322;2024-03-29T02:43:35;1.60;1.00
62904;DHT22;49000;50.698;13.322;2024-03-29T02:46:00;1.20;1.00
62904;DHT22;49000;50.698;13.322;2024-03-29T02:48:26;1.30;1.00
62904;DHT22;49000;50.698;13.322;2024-03-29T02:50:51;1.50;1.00
62904;DHT22;49000;50.698;13.322;2024-03-29T02:53:16;1.50;1.00
62904;DHT22;49000;50.698;13.322;2024-03-29T02:55:42;1.00;1.00
62904;DHT22;49000;50.698;13.322;2024-03-29T02:58:07;1.00;1.00
62904;DHT22;49000;50.698;13.322;2024-03-29T03:00:33;1.00;1.00
62904;DHT22;49000;50.698;13.322;2024-03-29T03:02:59;1.00;1.00
62904;DHT22;49000;50.698;13.322;2024-03-29T03:05:24;1.40;1.00
62904;DHT22;49000;50.698;13.322;2024-03-29T03:07:50;1.20;1.00
62904;DHT22;49000;50.698;13.322;2024-03-29T03:10:34;1.40;1.00
62904;DHT22;49000;50.698;13.322;2024-03-29T03:13:18;1.30;1.00
62904;DHT22;49000;50.698;13.322;2024-03-29T03:15:43;1.30;1.00
62904;DHT22;49000;50.698;13.322;2024-03-29T03:18:09;1.60;1.00
62904;DHT22;49000;50.698;13.322;2024-03-29T03:20:34;1.40;1.00
62904;DHT22;49000;50.698;13.322;2024-03-29T03:23:00;1.50;1.00
62904;DHT22;49000;50.698;13.322;2024-03-29T03:25:27;1.10;1.00
62904;DHT22;49000;50.698;13.322;2024-03-29T03:27:53;1.60;1.00
62904;DHT22;49000;50.698;13.322;2024-03-29T03:30:18;1.60;1.00
62904;DHT22;49000;50.698;13.322;2024-03-29T03:32:44;1.50;1.00
62904;DHT22;49000;50.698;13.322;2024-03-29T03:35:09;1.50;1.00
62904;DHT22;49000;50.698;13.322;2024-03-29T03:37:35;1.60;1.00
62904;DHT22;49000;50.698;13.322;2024-03-29T03:40:00;1.50;1.00
62904;DHT22;49000;50.698;13.322;2024-03-29T03:42:26;1.50;1.00
62904;DHT22;49000;50.698;13.322;2024-03-29T03:44:51;1.20;1.00
62904;DHT22;49000;50.698;13.322;2024-03-29T03:47:16;1.50;1.00
62904;DHT22;49000;50.698;13.322;2024-03-29T03:49:42;1.40;1.00
62904;DHT22;49000;50.698;13.322;2024-03-29T03:52:07;1.70;1.00
62904;DHT22;49000;50.698;13.322;2024-03-29T03:54:33;1.60;1.00
62904;DHT22;49000;50.698;13.322;2024-03-29T03:56:59;1.60;1.00
62904;DHT22;49000;50.698;13.322;2024-03-29T03:59:25;2.00;1.00
62904;DHT22;49000;50.698;13.322;2024-03-29T04:01:50;1.80;1.00
62904;DHT22;49000;50.698;13.322;2024-03-29T04:04:17;1.90;1.00
62904;DHT22;49000;50.698;13.322;2024-03-29T04:06:43;2.10;1.00
62904;DHT22;49000;50.698;13.322;2024-03-29T04:09:08;2.10;1.00
62904;DHT22;49000;50.698;13.322;2024-03-29T04:11:34;2.10;1.00
62904;DHT22;49000;50.698;13.322;2024-03-29T04:13:59;1.90;1.00
62904;DHT22;49000;50.698;13.322;2024-03-29T04:16:25;2.40;1.00
62904;DHT22;49000;50.698;13.322;2024-03-29T04:18:50;2.50;1.00
62904;DHT22;49000;50.698;13.322;2024-03-29T04:21:16;2.10;1.00
62904;DHT22;49000;50.698;13.322;2024-03-29T04:23:41;2.50;1.00
62904;DHT22;49000;50.698;13.322;2024-03-29T04:26:07;2.50;1.00
62904;DHT22;49000;50.698;13.322;2024-03-29T04:28:32;2.60;1.00
62904;DHT22;49000;50.698;13.322;2024-03-29T04:30:59;2.20;1.00
62904;DHT22;49000;50.698;13.322;2024-03-29T04:33:25;2.20;1.00
62904;DHT22;49000;50.698;13.322;2024-03-29T04:36:02;2.70;1.00
62904;DHT22;49000;50.698;13.322;2024-03-29T04:38:29;2.70;1.00
62904;DHT22;49000;50.698;13.322;2024-03-29T04:40:56;2.80;1.00
62904;DHT22;49000;50.698;13.322;2024-03-29T04:43:24;2.70;1.00
62904;DHT22;49000;50.698;13.322;2024-03-29T04:45:49;3.10;1.00
62904;DHT22;49000;50.698;13.322;2024-03-29T04:48:15;3.10;1.00
62904;DHT22;49000;50.698;13.322;2024-03-29T04:50:41;3.10;1.00
62904;DHT22;49000;50.698;13.322;2024-03-29T04:53:07;3.30;1.00
62904;DHT22;49000;50.698;13.322;2024-03-29T04:55:33;3.50;1.00
62904;DHT22;49000;50.698;13.322;2024-03-29T04:58:00;3.40;1.00
62904;DHT22;49000;50.698;13.322;2024-03-29T05:00:26;3.30;1.00
62904;DHT22;49000;50.698;13.322;2024-03-29T05:02:51;3.70;1.00
62904;DHT22;49000;50.698;13.322;2024-03-29T05:05:17;3.60;1.00
62904;DHT22;49000;50.698;13.322;2024-03-29T05:07:42;3.80;1.00
62904;DHT22;49000;50.698;13.322;2024-03-29T05:10:08;3.80;1.00
62904;DHT22;49000;50.698;13.322;2024-03-29T05:12:35;3.80;1.00
62904;DHT22;49000;50.698;13.322;2024-03-29T05:15:00;3.90;1.00
62904;DHT22;49000;50.698;13.322;2024-03-29T05:17:26;4.10;1.00
62904;DHT22;49000;50.698;13.322;2024-03-29T05:19:53;4.10;1.00
62904;DHT22;49000;50.698;13.322;2024-03-29T05:22:19;4.30;1.00
62904;DHT22;49000;50.698;13.322;2024-03-29T05:24:44;3.70;1.00
62904;DHT22;49000;50.698;13.322;2024-03-29T05:27:11;4.20;99.90
62904;DHT22;49000;50.698;13.322;2024-03-29T05:29:37;4.00;99.90
62904;DHT22;49000;50.698;13.322;2024-03-29T05:32:03;4.30;99.90
62904;DHT22;49000;50.698;13.322;2024-03-29T05:34:29;4.70;99.90
62904;DHT22;49000;50.698;13.322;2024-03-29T05:36:55;4.70;99.90
62904;DHT22;49000;50.698;13.322;2024-03-29T05:39:20;5.00;99.90
62904;DHT22;49000;50.698;13.322;2024-03-29T05:41:46;5.00;99.90
62904;DHT22;49000;50.698;13.322;2024-03-29T05:44:11;4.90;99.90
62904;DHT22;49000;50.698;13.322;2024-03-29T05:46:37;5.10;99.90
62904;DHT22;49000;50.698;13.322;2024-03-29T05:49:03;4.70;99.90
62904;DHT22;49000;50.698;13.322;2024-03-29T05:51:29;4.80;99.90
62904;DHT22;49000;50.698;13.322;2024-03-29T05:53:54;4.90;99.90
62904;DHT22;49000;50.698;13.322;2024-03-29T05:56:21;5.20;99.90
62904;DHT22;49000;50.698;13.322;2024-03-29T05:58:47;5.40;99.90
62904;DHT22;49000;50.698;13.322;2024-03-29T06:01:13;5.00;99.90
62904;DHT22;49000;50.698;13.322;2024-03-29T06:03:38;5.40;99.90
62904;DHT22;49000;50.698;13.322;2024-03-29T06:06:04;5.50;99.90
62904;DHT22;49000;50.698;13.322;2024-03-29T06:08:29;5.50;99.90
62904;DHT22;49000;50.698;13.322;2024-03-29T06:10:55;5.10;99.90
62904;DHT22;49000;50.698;13.322;2024-03-29T06:13:20;5.80;99.90
62904;DHT22;49000;50.698;13.322;2024-03-29T06:16:15;5.40;99.90
62904;DHT22;49000;50.698;13.322;2024-03-29T06:18:58;5.60;99.90
62904;DHT22;49000;50.698;13.322;2024-03-29T06:21:24;5.50;99.90
62904;DHT22;49000;50.698;13.322;2024-03-29T06:23:49;5.40;99.90
62904;DHT22;49000;50.698;13.322;2024-03-29T06:26:15;5.70;99.90
62904;DHT22;49000;50.698;13.322;2024-03-29T06:28:40;5.40;99.90
62904;DHT22;49000;50.698;13.322;2024-03-29T06:31:06;5.80;99.90
62904;DHT22;49000;50.698;13.322;2024-03-29T06:33:31;5.80;99.90
62904;DHT22;49000;50.698;13.322;2024-03-29T06:35:57;5.40;99.90
62904;DHT22;49000;50.698;13.322;2024-03-29T06:38:22;5.90;99.90
62904;DHT22;49000;50.698;13.322;2024-03-29T06:40:48;5.60;99.90
62904;DHT22;49000;50.698;13.322;2024-03-29T06:43:14;6.00;99.90
62904;DHT22;49000;50.698;13.322;2024-03-29T06:45:40;5.60;99.90
62904;DHT22;49000;50.698;13.322;2024-03-29T06:48:08;6.00;99.90
62904;DHT22;49000;50.698;13.322;2024-03-29T06:50:34;5.70;99.90
62904;DHT22;49000;50.698;13.322;2024-03-29T06:53:00;5.70;99.90
62904;DHT22;49000;50.698;13.322;2024-03-29T06:55:25;5.90;99.90
62904;DHT22;49000;50.698;13.322;2024-03-29T06:57:51;5.90;99.90
62904;DHT22;49000;50.698;13.322;2024-03-29T07:00:17;6.50;99.90
62904;DHT22;49000;50.698;13.322;2024-03-29T07:02:42;6.50;99.90
62904;DHT22;49000;50.698;13.322;2024-03-29T07:05:09;6.90;99.90
62904;DHT22;49000;50.698;13.322;2024-03-29T07:07:36;6.50;99.90
62904;DHT22;49000;50.698;13.322;2024-03-29T07:10:02;6.80;99.90
62904;DHT22;49000;50.698;13.322;2024-03-29T07:12:28;6.80;99.90
62904;DHT22;49000;50.698;13.322;2024-03-29T07:14:53;6.90;99.90
62904;DHT22;49000;50.698;13.322;2024-03-29T07:17:19;6.70;99.90
62904;DHT22;49000;50.698;13.322;2024-03-29T07:19:44;6.50;99.90
62904;DHT22;49000;50.698;13.322;2024-03-29T07:22:10;6.40;99.90
62904;DHT22;49000;50.698;13.322;2024-03-29T07:24:36;6.90;99.90
62904;DHT22;49000;50.698;13.322;2024-03-29T07:27:01;6.40;99.90
62904;DHT22;49000;50.698;13.322;2024-03-29T07:29:27;6.40;99.90
62904;DHT22;49000;50.698;13.322;2024-03-29T07:31:52;6.70;99.90
62904;DHT22;49000;50.698;13.322;2024-03-29T07:34:19;6.40;99.90
62904;DHT22;49000;50.698;13.322;2024-03-29T07:36:44;6.80;99.90
62904;DHT22;49000;50.698;13.322;2024-03-29T07:39:10;6.60;99.90
62904;DHT22;49000;50.698;13.322;2024-03-29T07:41:35;6.30;99.90
62904;DHT22;49000;50.698;13.322;2024-03-29T07:44:01;6.40;99.90
62904;DHT22;49000;50.698;13.322;2024-03-29T07:46:32;6.30;99.90
62904;DHT22;49000;50.698;13.322;2024-03-29T07:48:58;6.80;99.90
62904;DHT22;49000;50.698;13.322;2024-03-29T07:51:23;6.50;99.90
62904;DHT22;49000;50.698;13.322;2024-03-29T07:53:49;6.40;99.90
62904;DHT22;49000;50.698;13.322;2024-03-29T07:56:15;6.90;64.40
62904;DHT22;49000;50.698;13.322;2024-03-29T07:58:40;7.10;92.00
62904;DHT22;49000;50.698;13.322;2024-03-29T08:01:06;7.00;86.90
62904;DHT22;49000;50.698;13.322;2024-03-29T08:03:32;7.00;34.00
62904;DHT22;49000;50.698;13.322;2024-03-29T08:06:00;6.80;31.40
62904;DHT22;49000;50.698;13.322;2024-03-29T08:08:27;7.00;30.60
62904;DHT22;49000;50.698;13.322;2024-03-29T08:10:53;6.90;29.00
62904;DHT22;49000;50.698;13.322;2024-03-29T08:13:19;7.20;31.80
62904;DHT22;49000;50.698;13.322;2024-03-29T08:15:46;7.50;25.60
62904;DHT22;49000;50.698;13.322;2024-03-29T08:18:12;7.00;18.80
62904;DHT22;49000;50.698;13.322;2024-03-29T08:20:37;7.00;9.80
62904;DHT22;49000;50.698;13.322;2024-03-29T08:23:03;6.90;21.00
62904;DHT22;49000;50.698;13.322;2024-03-29T08:25:29;7.30;9.90
62904;DHT22;49000;50.698;13.322;2024-03-29T08:27:55;7.40;10.00
62904;DHT22;49000;50.698;13.322;2024-03-29T08:30:27;7.00;9.70
62904;DHT22;49000;50.698;13.322;2024-03-29T08:32:57;7.50;1.00
62904;DHT22;49000;50.698;13.322;2024-03-29T08:35:24;7.10;9.80
62904;DHT22;49000;50.698;13.322;2024-03-29T08:37:50;7.60;9.40
62904;DHT22;49000;50.698;13.322;2024-03-29T08:40:15;7.60;1.00
62904;DHT22;49000;50.698;13.322;2024-03-29T08:42:41;7.70;1.00
62904;DHT22;49000;50.698;13.322;2024-03-29T08:45:07;7.70;2.10
62904;DHT22;49000;50.698;13.322;2024-03-29T08:47:33;7.70;10.20
62904;DHT22;49000;50.698;13.322;2024-03-29T08:49:59;7.70;5.00
62904;DHT22;49000;50.698;13.322;2024-03-29T08:52:25;7.70;10.10
62904;DHT22;49000;50.698;13.322;2024-03-29T08:54:50;7.70;10.20
62904;DHT22;49000;50.698;13.322;2024-03-29T08:57:15;7.70;10.30
62904;DHT22;49000;50.698;13.322;2024-03-29T08:59:41;7.40;12.90
62904;DHT22;49000;50.698;13.322;2024-03-29T09:02:07;7.80;19.30
62904;DHT22;49000;50.698;13.322;2024-03-29T09:04:32;7.90;14.10
62904;DHT22;49000;50.698;13.322;2024-03-29T09:07:01;7.60;17.30
62904;DHT22;49000;50.698;13.322;2024-03-29T09:09:28;8.00;18.20
62904;DHT22;49000;50.698;13.322;2024-03-29T09:11:54;8.20;47.90
62904;DHT22;49000;50.698;13.322;2024-03-29T09:14:20;8.50;30.00
62904;DHT22;49000;50.698;13.322;2024-03-29T09:16:45;8.70;23.70
62904;DHT22;49000;50.698;13.322;2024-03-29T09:19:13;8.80;10.90
62904;DHT22;49000;50.698;13.322;2024-03-29T09:21:39;8.90;11.00
62904;DHT22;49000;50.698;13.322;2024-03-29T09:24:05;9.00;11.00
62904;DHT22;49000;50.698;13.322;2024-03-29T09:26:31;9.10;1.20
62904;DHT22;49000;50.698;13.322;2024-03-29T09:28:56;9.20;5.10
62904;DHT22;49000;50.698;13.322;2024-03-29T09:31:22;9.30;3.20
62904;DHT22;49000;50.698;13.322;2024-03-29T09:33:47;9.60;1.00
62904;DHT22;49000;50.698;13.322;2024-03-29T09:36:19;9.80;1.00
62904;DHT22;49000;50.698;13.322;2024-03-29T09:38:45;10.00;1.00
62904;DHT22;49000;50.698;13.322;2024-03-29T09:41:14;10.20;1.00
62904;DHT22;49000;50.698;13.322;2024-03-29T09:43:41;10.20;1.00
62904;DHT22;49000;50.698;13.322;2024-03-29T09:46:08;10.20;1.00
62904;DHT22;49000;50.698;13.322;2024-03-29T09:48:34;10.20;1.00
62904;DHT22;49000;50.698;13.322;2024-03-29T09:51:07;10.30;1.00
62904;DHT22;49000;50.698;13.322;2024-03-29T09:53:37;10.30;1.00
62904;DHT22;49000;50.698;13.322;2024-03-29T09:56:04;10.30;1.00
62904;DHT22;49000;50.698;13.322;2024-03-29T09:58:33;10.50;1.00
62904;DHT22;49000;50.698;13.322;2024-03-29T10:01:03;10.80;1.00
62904;DHT22;49000;50.698;13.322;2024-03-29T10:03:29;11.10;1.00
62904;DHT22;49000;50.698;13.322;2024-03-29T10:06:01;11.40;1.00
62904;DHT22;49000;50.698;13.322;2024-03-29T10:08:29;11.60;1.00
62904;DHT22;49000;50.698;13.322;2024-03-29T10:10:57;11.70;1.00
62904;DHT22;49000;50.698;13.322;2024-03-29T10:13:23;11.90;1.00
62904;DHT22;49000;50.698;13.322;2024-03-29T10:15:53;11.90;1.00
62904;DHT22;49000;50.698;13.322;2024-03-29T10:18:21;12.00;1.00
62904;DHT22;49000;50.698;13.322;2024-03-29T10:20:47;12.10;1.00
62904;DHT22;49000;50.698;13.322;2024-03-29T10:23:13;12.20;1.00
62904;DHT22;49000;50.698;13.322;2024-03-29T10:25:39;12.20;1.00
62904;DHT22;49000;50.698;13.322;2024-03-29T10:28:05;12.30;1.00
62904;DHT22;49000;50.698;13.322;2024-03-29T10:30:31;12.30;1.00
62904;DHT22;49000;50.698;13.322;2024-03-29T10:32:56;12.40;1.00
62904;DHT22;49000;50.698;13.322;2024-03-29T10:35:25;12.40;1.00
62904;DHT22;49000;50.698;13.322;2024-03-29T10:37:54;12.40;1.00
62904;DHT22;49000;50.698;13.322;2024-03-29T10:40:21;12.30;1.00
62904;DHT22;49000;50.698;13.322;2024-03-29T10:42:48;12.20;1.00
62904;DHT22;49000;50.698;13.322;2024-03-29T10:45:14;12.10;1.00
62904;DHT22;49000;50.698;13.322;2024-03-29T10:47:41;11.90;1.00
62904;DHT22;49000;50.698;13.322;2024-03-29T10:50:11;11.80;1.00
62904;DHT22;49000;50.698;13.322;2024-03-29T10:52:39;11.80;1.00
62904;DHT22;49000;50.698;13.322;2024-03-29T10:55:04;11.70;1.00
62904;DHT22;49000;50.698;13.322;2024-03-29T10:57:34;11.60;1.00
62904;DHT22;49000;50.698;13.322;2024-03-29T11:02:46;11.40;1.00
62904;DHT22;49000;50.698;13.322;2024-03-29T11:05:15;11.30;1.00
62904;DHT22;49000;50.698;13.322;2024-03-29T11:07:42;11.30;1.00
62904;DHT22;49000;50.698;13.322;2024-03-29T11:10:19;11.30;1.00
62904;DHT22;49000;50.698;13.322;2024-03-29T11:13:06;11.30;1.00
62904;DHT22;49000;50.698;13.322;2024-03-29T11:15:37;11.30;1.00
62904;DHT22;49000;50.698;13.322;2024-03-29T11:18:04;11.30;1.00
62904;DHT22;49000;50.698;13.322;2024-03-29T11:20:31;11.40;1.00
62904;DHT22;49000;50.698;13.322;2024-03-29T11:23:09;11.40;1.00
62904;DHT22;49000;50.698;13.322;2024-03-29T11:25:40;11.50;1.00
62904;DHT22;49000;50.698;13.322;2024-03-29T11:28:10;11.50;1.00
62904;DHT22;49000;50.698;13.322;2024-03-29T11:30:42;11.60;1.00
62904;DHT22;49000;50.698;13.322;2024-03-29T11:33:24;11.60;1.00
62904;DHT22;49000;50.698;13.322;2024-03-29T11:35:50;11.60;1.00
62904;DHT22;49000;50.698;13.322;2024-03-29T11:38:19;11.70;1.00
62904;DHT22;49000;50.698;13.322;2024-03-29T11:40:54;11.70;1.00
62904;DHT22;49000;50.698;13.322;2024-03-29T11:43:20;11.70;1.00
62904;DHT22;49000;50.698;13.322;2024-03-29T11:45:47;11.70;1.00
62904;DHT22;49000;50.698;13.322;2024-03-29T11:48:20;11.70;1.00
62904;DHT22;49000;50.698;13.322;2024-03-29T11:50:48;11.70;1.00
62904;DHT22;49000;50.698;13.322;2024-03-29T11:53:13;11.80;1.00
62904;DHT22;49000;50.698;13.322;2024-03-29T11:55:39;11.80;1.00
62904;DHT22;49000;50.698;13.322;2024-03-29T11:58:04;11.90;1.00
62904;DHT22;49000;50.698;13.322;2024-03-29T12:00:30;11.90;1.00
62904;DHT22;49000;50.698;13.322;2024-03-29T12:02:56;12.10;1.00
62904;DHT22;49000;50.698;13.322;2024-03-29T12:05:22;12.10;1.00
62904;DHT22;49000;50.698;13.322;2024-03-29T12:07:48;12.20;1.00
62904;DHT22;49000;50.698;13.322;2024-03-29T12:10:14;12.30;1.00
62904;DHT22;49000;50.698;13.322;2024-03-29T12:12:39;12.20;1.00
62904;DHT22;49000;50.698;13.322;2024-03-29T12:15:07;12.20;1.00
62904;DHT22;49000;50.698;13.322;2024-03-29T12:17:33;12.10;1.00
62904;DHT22;49000;50.698;13.322;2024-03-29T12:19:59;12.10;1.00
62904;DHT22;49000;50.698;13.322;2024-03-29T12:25:07;12.00;1.00
62904;DHT22;49000;50.698;13.322;2024-03-29T12:27:33;12.10;1.00
62904;DHT22;49000;50.698;13.322;2024-03-29T12:29:59;12.00;1.00
62904;DHT22;49000;50.698;13.322;2024-03-29T12:32:24;12.10;1.00
62904;DHT22;49000;50.698;13.322;2024-03-29T12:34:51;12.20;1.00
62904;DHT22;49000;50.698;13.322;2024-03-29T12:37:16;12.20;1.00
62904;DHT22;49000;50.698;13.322;2024-03-29T12:39:42;12.30;1.00
62904;DHT22;49000;50.698;13.322;2024-03-29T12:42:07;12.40;1.00
62904;DHT22;49000;50.698;13.322;2024-03-29T12:44:33;12.40;1.00
62904;DHT22;49000;50.698;13.322;2024-03-29T12:47:01;12.40;1.00
62904;DHT22;49000;50.698;13.322;2024-03-29T12:49:28;12.50;1.00
62904;DHT22;49000;50.698;13.322;2024-03-29T12:51:55;12.60;1.00
62904;DHT22;49000;50.698;13.322;2024-03-29T12:54:21;12.70;1.00
62904;DHT22;49000;50.698;13.322;2024-03-29T12:56:46;12.70;1.00
62904;DHT22;49000;50.698;13.322;2024-03-29T12:59:12;12.80;1.00
62904;DHT22;49000;50.698;13.322;2024-03-29T13:01:37;12.80;1.00
62904;DHT22;49000;50.698;13.322;2024-03-29T13:04:03;12.80;1.00
62904;DHT22;49000;50.698;13.322;2024-03-29T13:06:29;12.90;1.00
62904;DHT22;49000;50.698;13.322;2024-03-29T13:08:54;13.20;1.00
62904;DHT22;49000;50.698;13.322;2024-03-29T13:11:22;13.40;1.00
62904;DHT22;49000;50.698;13.322;2024-03-29T13:13:47;13.50;1.00
62904;DHT22;49000;50.698;13.322;2024-03-29T13:16:13;13.60;1.00
62904;DHT22;49000;50.698;13.322;2024-03-29T13:18:39;13.50;1.00
62904;DHT22;49000;50.698;13.322;2024-03-29T13:21:04;13.50;1.00
62904;DHT22;49000;50.698;13.322;2024-03-29T13:23:30;13.60;1.00
62904;DHT22;49000;50.698;13.322;2024-03-29T13:25:57;13.70;1.00
62904;DHT22;49000;50.698;13.322;2024-03-29T13:28:24;13.90;1.00
62904;DHT22;49000;50.698;13.322;2024-03-29T13:30:49;14.00;1.00
62904;DHT22;49000;50.698;13.322;2024-03-29T13:33:17;14.10;1.00
62904;DHT22;49000;50.698;13.322;2024-03-29T13:35:42;14.30;1.00
62904;DHT22;49000;50.698;13.322;2024-03-29T13:38:09;14.30;1.00
62904;DHT22;49000;50.698;13.322;2024-03-29T13:40:35;14.50;1.00
62904;DHT22;49000;50.698;13.322;2024-03-29T13:43:00;14.90;1.00
62904;DHT22;49000;50.698;13.322;2024-03-29T13:45:26;15.20;1.00
62904;DHT22;49000;50.698;13.322;2024-03-29T13:47:53;15.20;1.00
62904;DHT22;49000;50.698;13.322;2024-03-29T13:50:18;15.20;1.00
62904;DHT22;49000;50.698;13.322;2024-03-29T13:52:44;15.30;1.00
62904;DHT22;49000;50.698;13.322;2024-03-29T13:55:10;15.40;1.00
62904;DHT22;49000;50.698;13.322;2024-03-29T13:57:36;15.80;1.00
62904;DHT22;49000;50.698;13.322;2024-03-29T14:00:02;16.00;1.00
62904;DHT22;49000;50.698;13.322;2024-03-29T14:02:29;16.10;1.00
62904;DHT22;49000;50.698;13.322;2024-03-29T14:04:55;16.40;1.00
62904;DHT22;49000;50.698;13.322;2024-03-29T14:07:21;16.70;1.00
62904;DHT22;49000;50.698;13.322;2024-03-29T14:09:49;17.20;1.00
62904;DHT22;49000;50.698;13.322;2024-03-29T14:12:16;17.50;1.00
62904;DHT22;49000;50.698;13.322;2024-03-29T14:14:43;17.80;1.00
62904;DHT22;49000;50.698;13.322;2024-03-29T14:17:09;17.60;1.00
62904;DHT22;49000;50.698;13.322;2024-03-29T14:19:39;17.20;1.00
62904;DHT22;49000;50.698;13.322;2024-03-29T14:22:05;16.40;1.00
62904;DHT22;49000;50.698;13.322;2024-03-29T14:24:31;16.20;1.00
62904;DHT22;49000;50.698;13.322;2024-03-29T14:27:01;16.10;1.00
62904;DHT22;49000;50.698;13.322;2024-03-29T14:29:27;16.00;1.00
62904;DHT22;49000;50.698;13.322;2024-03-29T14:31:52;16.20;1.00
62904;DHT22;49000;50.698;13.322;2024-03-29T14:34:20;16.30;1.00
62904;DHT22;49000;50.698;13.322;2024-03-29T14:36:46;16.40;1.00
62904;DHT22;49000;50.698;13.322;2024-03-29T14:39:11;16.60;1.00
62904;DHT22;49000;50.698;13.322;2024-03-29T14:41:41;17.00;1.00
62904;DHT22;49000;50.698;13.322;2024-03-29T14:44:09;17.20;1.00
62904;DHT22;49000;50.698;13.322;2024-03-29T14:46:34;17.40;1.00
62904;DHT22;49000;50.698;13.322;2024-03-29T14:49:03;17.60;1.00
62904;DHT22;49000;50.698;13.322;2024-03-29T14:51:35;17.50;1.00
62904;DHT22;49000;50.698;13.322;2024-03-29T14:54:01;17.40;1.00
62904;DHT22;49000;50.698;13.322;2024-03-29T14:56:29;17.30;1.00
62904;DHT22;49000;50.698;13.322;2024-03-29T14:59:03;17.10;1.00
62904;DHT22;49000;50.698;13.322;2024-03-29T15:01:30;17.10;1.00
62904;DHT22;49000;50.698;13.322;2024-03-29T15:03:55;16.80;1.00
62904;DHT22;49000;50.698;13.322;2024-03-29T15:06:21;16.60;1.00
62904;DHT22;49000;50.698;13.322;2024-03-29T15:08:49;16.40;1.00
62904;DHT22;49000;50.698;13.322;2024-03-29T15:11:15;16.10;1.00
62904;DHT22;49000;50.698;13.322;2024-03-29T15:13:40;15.80;1.00
62904;DHT22;49000;50.698;13.322;2024-03-29T15:16:06;15.90;1.00
62904;DHT22;49000;50.698;13.322;2024-03-29T15:18:31;16.20;1.00
62904;DHT22;49000;50.698;13.322;2024-03-29T15:21:00;16.80;1.00
62904;DHT22;49000;50.698;13.322;2024-03-29T15:23:28;17.00;1.00
62904;DHT22;49000;50.698;13.322;2024-03-29T15:25:54;16.50;1.00
62904;DHT22;49000;50.698;13.322;2024-03-29T15:28:21;16.10;1.00
62904;DHT22;49000;50.698;13.322;2024-03-29T15:31:16;15.90;1.00
62904;DHT22;49000;50.698;13.322;2024-03-29T15:33:45;15.80;1.00
62904;DHT22;49000;50.698;13.322;2024-03-29T15:36:11;15.80;1.00